Arjeplog, Sweden

1:09 PM CET on November 27, 2014 (GMT +0100)
Arvidsjaur | Change Station
CLOSE
Current Station
Airport
Location: ARVIDSJAUR,
Elevation: 1243 ft
Nearby Weather Stations

Elev 1243 ft 65.59 °N, 19.28 °E | Updated 19 minutes ago

Light Freezing Fog
Freezing Fog
9 °F
Feels Like 9 °F
N
0
Wind Variable Wind from North

Today
High -- | Low -- °F
--% Chance of Precip.
Yesterday
High -- | Low -- °F
Precip. -- in
9:21 AM 1:50 PM
Waxing Crescent, 29% visible
Pressure 30.12 in
Visibility 0.1 miles
Clouds
Dew Point 7 °F
Humidity 92%
Rainfall 0.00 in
Snow Depth Not available.
UV Not available.
Pollen Not available.
Air Quality Not available.
Flu Activity Not available.
METAR ESNX 271150Z AUTO 00000KT 0200NDV R12/P2000N R30/0450N FZFG VV002 M13/M14 Q1020 RESG

More Conditions Fewer Conditions

Pressure 30.12 in
Visibility 0.1 miles
Clouds
Dew Point 7 °F
Humidity 92%
Rainfall 0.00 in
Snow Depth Not available.
UV Not available.
Pollen Not available.
Air Quality Not available.
Flu Activity Not available.
METAR ESNX 271150Z AUTO 00000KT 0200NDV R12/P2000N R30/0450N FZFG VV002 M13/M14 Q1020 RESG

More Conditions Fewer Conditions

10-Day Weather Forecast

Almanac

Astronomy

Nov. 27, 2014 Rise Set
Actual Time
Civil Twilight
Nautical Twilight
Astronomical Twilight
Moon
Length of Visible Light
Length of Day
Tomorrow will be .
, % of the Moon is Illuminated

Today's Extremes

Country Highs Country Lows

Community

WunderPhotos

Upload Photos

1,773,975 photos uploaded!

WunderBlogs® & News

Nearby

Air Quality

  Air Quality AQ Index Pollutant
Not available.

Snow Depth

Station Depth Elevation

Earthquake Activity

City Distance Mag. Time & Date
Minimum magnitude displayed is 2.5.

Coastal Water Temperatures

Place Temperature

Nearby Weather Stations